sensor_id;sensor_type;location;lat;lon;timestamp;pressure;altitude;pressure_sealevel;temperature;humidity
44934;BME280;30667;43.614;1.442;2023-03-03T00:02:18;100485.84;;;4.40;100.00
44934;BME280;30667;43.614;1.442;2023-03-03T00:04:43;100484.47;;;4.38;100.00
44934;BME280;30667;43.614;1.442;2023-03-03T00:07:10;100484.22;;;4.39;100.00
44934;BME280;30667;43.614;1.442;2023-03-03T00:09:36;100477.13;;;4.45;100.00
44934;BME280;30667;43.614;1.442;2023-03-03T00:12:17;100471.88;;;4.38;100.00
44934;BME280;30667;43.614;1.442;2023-03-03T00:14:44;100473.06;;;4.42;100.00
44934;BME280;30667;43.614;1.442;2023-03-03T00:17:29;100478.03;;;4.39;100.00
44934;BME280;30667;43.614;1.442;2023-03-03T00:19:55;100478.13;;;4.32;100.00
44934;BME280;30667;43.614;1.442;2023-03-03T00:22:44;100477.31;;;4.31;100.00
44934;BME280;30667;43.614;1.442;2023-03-03T00:25:28;100483.47;;;4.32;100.00
44934;BME280;30667;43.614;1.442;2023-03-03T00:27:55;100475.81;;;4.35;100.00
44934;BME280;30667;43.614;1.442;2023-03-03T00:30:25;100476.28;;;4.32;100.00
44934;BME280;30667;43.614;1.442;2023-03-03T00:32:51;100472.75;;;4.32;100.00
44934;BME280;30667;43.614;1.442;2023-03-03T00:35:28;100470.31;;;4.30;100.00
44934;BME280;30667;43.614;1.442;2023-03-03T00:37:59;100473.22;;;4.29;100.00
44934;BME280;30667;43.614;1.442;2023-03-03T00:40:35;100470.75;;;4.27;100.00
44934;BME280;30667;43.614;1.442;2023-03-03T00:43:14;100464.69;;;4.20;100.00
44934;BME280;30667;43.614;1.442;2023-03-03T00:45:47;100462.66;;;4.15;100.00
44934;BME280;30667;43.614;1.442;2023-03-03T00:48:29;100464.31;;;4.16;100.00
44934;BME280;30667;43.614;1.442;2023-03-03T00:50:59;100459.78;;;4.17;100.00
44934;BME280;30667;43.614;1.442;2023-03-03T00:53:27;100466.16;;;4.16;100.00
44934;BME280;30667;43.614;1.442;2023-03-03T00:55:53;100468.03;;;4.15;100.00
44934;BME280;30667;43.614;1.442;2023-03-03T00:58:20;100467.66;;;4.12;100.00
44934;BME280;30667;43.614;1.442;2023-03-03T01:00:48;100467.66;;;4.12;100.00
44934;BME280;30667;43.614;1.442;2023-03-03T01:03:19;100463.56;;;4.09;100.00
44934;BME280;30667;43.614;1.442;2023-03-03T01:05:45;100465.25;;;4.04;100.00
44934;BME280;30667;43.614;1.442;2023-03-03T01:08:11;100463.41;;;4.04;100.00
44934;BME280;30667;43.614;1.442;2023-03-03T01:10:42;100464.44;;;4.03;100.00
44934;BME280;30667;43.614;1.442;2023-03-03T01:13:09;100460.81;;;3.97;100.00
44934;BME280;30667;43.614;1.442;2023-03-03T01:15:37;100459.16;;;3.96;100.00
44934;BME280;30667;43.614;1.442;2023-03-03T01:18:02;100460.44;;;3.94;100.00
44934;BME280;30667;43.614;1.442;2023-03-03T01:20:28;100455.91;;;3.94;100.00
44934;BME280;30667;43.614;1.442;2023-03-03T01:22:53;100463.31;;;3.92;100.00
44934;BME280;30667;43.614;1.442;2023-03-03T01:25:19;100469.75;;;3.91;100.00
44934;BME280;30667;43.614;1.442;2023-03-03T01:27:44;100462.16;;;3.88;100.00
44934;BME280;30667;43.614;1.442;2023-03-03T01:30:10;100461.31;;;3.88;100.00
44934;BME280;30667;43.614;1.442;2023-03-03T01:32:35;100454.72;;;3.90;100.00
44934;BME280;30667;43.614;1.442;2023-03-03T01:35:01;100463.75;;;3.89;100.00
44934;BME280;30667;43.614;1.442;2023-03-03T01:37:26;100463.19;;;3.87;100.00
44934;BME280;30667;43.614;1.442;2023-03-03T01:39:53;100458.63;;;3.88;100.00
44934;BME280;30667;43.614;1.442;2023-03-03T01:42:19;100453.97;;;3.83;100.00
44934;BME280;30667;43.614;1.442;2023-03-03T01:44:45;100458.25;;;3.84;100.00
44934;BME280;30667;43.614;1.442;2023-03-03T01:47:19;100453.13;;;3.82;100.00
44934;BME280;30667;43.614;1.442;2023-03-03T01:52:19;100452.91;;;3.84;100.00
44934;BME280;30667;43.614;1.442;2023-03-03T01:54:50;100450.22;;;3.84;100.00
44934;BME280;30667;43.614;1.442;2023-03-03T01:57:24;100449.44;;;3.84;100.00
44934;BME280;30667;43.614;1.442;2023-03-03T01:59:53;100451.50;;;3.81;100.00
44934;BME280;30667;43.614;1.442;2023-03-03T02:02:21;100445.75;;;3.78;100.00
44934;BME280;30667;43.614;1.442;2023-03-03T02:04:49;100455.00;;;3.82;100.00
44934;BME280;30667;43.614;1.442;2023-03-03T02:07:15;100452.31;;;3.82;100.00
44934;BME280;30667;43.614;1.442;2023-03-03T02:09:57;100450.69;;;3.81;100.00
44934;BME280;30667;43.614;1.442;2023-03-03T02:12:30;100439.97;;;3.81;100.00
44934;BME280;30667;43.614;1.442;2023-03-03T02:14:56;100435.47;;;3.81;100.00
44934;BME280;30667;43.614;1.442;2023-03-03T02:17:22;100426.38;;;3.82;100.00
44934;BME280;30667;43.614;1.442;2023-03-03T02:20:05;100436.41;;;3.87;100.00
44934;BME280;30667;43.614;1.442;2023-03-03T02:22:43;100432.91;;;3.87;100.00
44934;BME280;30667;43.614;1.442;2023-03-03T02:25:17;100438.78;;;3.95;100.00
44934;BME280;30667;43.614;1.442;2023-03-03T02:27:47;100427.25;;;3.95;100.00
44934;BME280;30667;43.614;1.442;2023-03-03T02:30:16;100429.34;;;3.93;100.00
44934;BME280;30667;43.614;1.442;2023-03-03T02:32:42;100424.81;;;3.93;100.00
44934;BME280;30667;43.614;1.442;2023-03-03T02:35:39;100419.22;;;3.95;100.00
44934;BME280;30667;43.614;1.442;2023-03-03T02:38:26;100426.69;;;3.93;100.00
44934;BME280;30667;43.614;1.442;2023-03-03T02:41:15;100423.78;;;3.94;100.00
44934;BME280;30667;43.614;1.442;2023-03-03T02:46:21;100428.84;;;4.03;100.00
44934;BME280;30667;43.614;1.442;2023-03-03T02:48:46;100420.00;;;4.02;100.00
44934;BME280;30667;43.614;1.442;2023-03-03T02:51:12;100422.41;;;4.04;100.00
44934;BME280;30667;43.614;1.442;2023-03-03T02:53:37;100421.25;;;3.99;100.00
44934;BME280;30667;43.614;1.442;2023-03-03T02:56:03;100414.38;;;4.04;100.00
44934;BME280;30667;43.614;1.442;2023-03-03T02:58:29;100418.72;;;4.05;100.00
44934;BME280;30667;43.614;1.442;2023-03-03T03:00:55;100418.72;;;4.05;100.00
44934;BME280;30667;43.614;1.442;2023-03-03T03:03:21;100414.63;;;4.02;100.00
44934;BME280;30667;43.614;1.442;2023-03-03T03:05:46;100405.91;;;4.07;100.00
44934;BME280;30667;43.614;1.442;2023-03-03T03:08:12;100405.53;;;4.03;100.00
44934;BME280;30667;43.614;1.442;2023-03-03T03:10:37;100412.53;;;4.04;100.00
44934;BME280;30667;43.614;1.442;2023-03-03T03:13:03;100420.22;;;4.00;100.00
44934;BME280;30667;43.614;1.442;2023-03-03T03:15:28;100417.53;;;4.00;100.00
44934;BME280;30667;43.614;1.442;2023-03-03T03:17:54;100423.25;;;4.04;100.00
44934;BME280;30667;43.614;1.442;2023-03-03T03:20:19;100417.31;;;4.02;100.00
44934;BME280;30667;43.614;1.442;2023-03-03T03:22:45;100416.47;;;4.02;100.00
44934;BME280;30667;43.614;1.442;2023-03-03T03:25:10;100417.91;;;4.04;100.00
44934;BME280;30667;43.614;1.442;2023-03-03T03:27:35;100419.91;;;4.09;100.00
44934;BME280;30667;43.614;1.442;2023-03-03T03:30:01;100420.94;;;4.08;100.00
44934;BME280;30667;43.614;1.442;2023-03-03T03:32:27;100419.50;;;4.05;100.00
44934;BME280;30667;43.614;1.442;2023-03-03T03:34:52;100418.13;;;4.03;100.00
44934;BME280;30667;43.614;1.442;2023-03-03T03:37:17;100413.78;;;4.02;100.00
44934;BME280;30667;43.614;1.442;2023-03-03T03:39:43;100416.25;;;4.03;100.00
44934;BME280;30667;43.614;1.442;2023-03-03T03:42:08;100409.41;;;4.07;100.00
44934;BME280;30667;43.614;1.442;2023-03-03T03:44:34;100418.25;;;4.08;100.00
44934;BME280;30667;43.614;1.442;2023-03-03T03:46:59;100414.38;;;4.04;100.00
44934;BME280;30667;43.614;1.442;2023-03-03T03:49:25;100414.38;;;4.04;100.00
44934;BME280;30667;43.614;1.442;2023-03-03T03:51:50;100422.41;;;4.04;100.00
44934;BME280;30667;43.614;1.442;2023-03-03T03:54:15;100409.78;;;4.11;100.00
44934;BME280;30667;43.614;1.442;2023-03-03T03:56:41;100420.50;;;4.11;100.00
44934;BME280;30667;43.614;1.442;2023-03-03T03:59:07;100412.69;;;4.09;100.00
44934;BME280;30667;43.614;1.442;2023-03-03T04:01:32;100414.56;;;4.09;100.00
44934;BME280;30667;43.614;1.442;2023-03-03T04:03:58;100418.72;;;4.05;100.00
44934;BME280;30667;43.614;1.442;2023-03-03T04:06:23;100413.94;;;4.07;100.00
44934;BME280;30667;43.614;1.442;2023-03-03T04:08:49;100418.03;;;4.09;100.00
44934;BME280;30667;43.614;1.442;2023-03-03T04:11:14;100422.34;;;4.10;100.00
44934;BME280;30667;43.614;1.442;2023-03-03T04:13:40;100424.44;;;4.08;100.00
44934;BME280;30667;43.614;1.442;2023-03-03T04:16:06;100423.97;;;4.11;100.00
44934;BME280;30667;43.614;1.442;2023-03-03T04:18:31;100429.78;;;4.08;100.00
44934;BME280;30667;43.614;1.442;2023-03-03T04:20:56;100433.06;;;4.10;100.00
44934;BME280;30667;43.614;1.442;2023-03-03T04:23:22;100428.88;;;4.14;100.00
44934;BME280;30667;43.614;1.442;2023-03-03T04:25:48;100425.41;;;4.14;100.00
44934;BME280;30667;43.614;1.442;2023-03-03T04:28:16;100428.53;;;4.11;100.00
44934;BME280;30667;43.614;1.442;2023-03-03T04:30:41;100429.09;;;4.13;100.00
44934;BME280;30667;43.614;1.442;2023-03-03T04:33:07;100425.84;;;4.11;100.00
44934;BME280;30667;43.614;1.442;2023-03-03T04:35:33;100424.59;;;4.13;100.00
44934;BME280;30667;43.614;1.442;2023-03-03T04:37:58;100432.75;;;4.18;100.00
44934;BME280;30667;43.614;1.442;2023-03-03T04:40:23;100427.84;;;4.15;100.00
44934;BME280;30667;43.614;1.442;2023-03-03T04:42:49;100425.97;;;4.16;100.00
44934;BME280;30667;43.614;1.442;2023-03-03T04:45:14;100426.44;;;4.13;100.00
44934;BME280;30667;43.614;1.442;2023-03-03T04:47:40;100430.41;;;4.10;100.00
44934;BME280;30667;43.614;1.442;2023-03-03T04:50:07;100430.41;;;4.10;100.00
44934;BME280;30667;43.614;1.442;2023-03-03T04:52:34;100428.31;;;4.12;100.00
44934;BME280;30667;43.614;1.442;2023-03-03T04:54:59;100424.16;;;4.16;100.00
44934;BME280;30667;43.614;1.442;2023-03-03T04:57:24;100435.06;;;4.15;100.00
44934;BME280;30667;43.614;1.442;2023-03-03T04:59:50;100428.06;;;4.14;100.00
44934;BME280;30667;43.614;1.442;2023-03-03T05:02:16;100433.06;;;4.10;100.00
44934;BME280;30667;43.614;1.442;2023-03-03T05:04:41;100430.63;;;4.09;100.00
44934;BME280;30667;43.614;1.442;2023-03-03T05:07:07;100426.06;;;4.09;100.00
44934;BME280;30667;43.614;1.442;2023-03-03T05:09:33;100434.91;;;4.10;100.00
44934;BME280;30667;43.614;1.442;2023-03-03T05:11:58;100428.06;;;4.14;100.00
44934;BME280;30667;43.614;1.442;2023-03-03T05:14:24;100424.81;;;4.12;100.00
44934;BME280;30667;43.614;1.442;2023-03-03T05:16:49;100426.44;;;4.13;100.00
44934;BME280;30667;43.614;1.442;2023-03-03T05:19:14;100430.16;;;4.12;100.00
44934;BME280;30667;43.614;1.442;2023-03-03T05:21:40;100436.13;;;4.14;100.00
44934;BME280;30667;43.614;1.442;2023-03-03T05:24:07;100429.94;;;4.13;100.00
44934;BME280;30667;43.614;1.442;2023-03-03T05:26:33;100428.88;;;4.14;100.00
44934;BME280;30667;43.614;1.442;2023-03-03T05:28:59;100443.34;;;4.13;100.00
44934;BME280;30667;43.614;1.442;2023-03-03T05:31:24;100443.56;;;4.12;100.00
44934;BME280;30667;43.614;1.442;2023-03-03T05:33:51;100440.03;;;4.11;100.00
44934;BME280;30667;43.614;1.442;2023-03-03T05:36:17;100438.56;;;4.15;100.00
44934;BME280;30667;43.614;1.442;2023-03-03T05:38:43;100441.81;;;4.17;100.00
44934;BME280;30667;43.614;1.442;2023-03-03T05:41:08;100444.50;;;4.17;100.00
44934;BME280;30667;43.614;1.442;2023-03-03T05:43:34;100444.72;;;4.16;100.00
44934;BME280;30667;43.614;1.442;2023-03-03T05:45:59;100441.59;;;4.19;100.00
44934;BME280;30667;43.614;1.442;2023-03-03T05:48:25;100443.91;;;4.15;100.00
44934;BME280;30667;43.614;1.442;2023-03-03T05:50:51;100444.16;;;4.14;100.00
44934;BME280;30667;43.614;1.442;2023-03-03T05:53:16;100447.63;;;4.14;100.00
44934;BME280;30667;43.614;1.442;2023-03-03T05:55:42;100442.50;;;4.13;100.00
44934;BME280;30667;43.614;1.442;2023-03-03T05:58:07;100444.94;;;4.14;100.00
44934;BME280;30667;43.614;1.442;2023-03-03T06:00:33;100437.97;;;4.13;100.00
44934;BME280;30667;43.614;1.442;2023-03-03T06:02:59;100450.31;;;4.14;100.00
44934;BME280;30667;43.614;1.442;2023-03-03T06:05:25;100438.56;;;4.15;100.00
44934;BME280;30667;43.614;1.442;2023-03-03T06:07:50;100440.44;;;4.15;100.00
44934;BME280;30667;43.614;1.442;2023-03-03T06:10:16;100449.50;;;4.14;100.00
44934;BME280;30667;43.614;1.442;2023-03-03T06:12:41;100450.31;;;4.14;100.00
44934;BME280;30667;43.614;1.442;2023-03-03T06:15:08;100450.09;;;4.16;100.00
44934;BME280;30667;43.614;1.442;2023-03-03T06:17:34;100453.00;;;4.14;100.00
44934;BME280;30667;43.614;1.442;2023-03-03T06:19:59;100446.59;;;4.15;100.00
44934;BME280;30667;43.614;1.442;2023-03-03T06:22:25;100451.97;;;4.15;100.00
44934;BME280;30667;43.614;1.442;2023-03-03T06:24:50;100454.84;;;4.14;100.00
44934;BME280;30667;43.614;1.442;2023-03-03T06:27:17;100460.78;;;4.16;100.00
44934;BME280;30667;43.614;1.442;2023-03-03T06:29:42;100459.09;;;4.22;100.00
44934;BME280;30667;43.614;1.442;2023-03-03T06:32:08;100457.09;;;4.17;100.00
44934;BME280;30667;43.614;1.442;2023-03-03T06:34:33;100459.31;;;4.20;100.00
44934;BME280;30667;43.614;1.442;2023-03-03T06:36:59;100464.22;;;4.23;100.00
44934;BME280;30667;43.614;1.442;2023-03-03T06:39:24;100470.03;;;4.20;100.00
44934;BME280;30667;43.614;1.442;2023-03-03T06:41:50;100474.56;;;4.19;100.00
44934;BME280;30667;43.614;1.442;2023-03-03T06:44:16;100472.13;;;4.18;100.00
44934;BME280;30667;43.614;1.442;2023-03-03T06:46:41;100475.97;;;4.22;100.00
44934;BME280;30667;43.614;1.442;2023-03-03T06:49:06;100474.94;;;4.23;100.00
44934;BME280;30667;43.614;1.442;2023-03-03T06:51:34;100475.75;;;4.24;100.00
44934;BME280;30667;43.614;1.442;2023-03-03T06:54:17;100473.22;;;4.29;100.00
44934;BME280;30667;43.614;1.442;2023-03-03T06:56:44;100477.41;;;4.25;100.00
44934;BME280;30667;43.614;1.442;2023-03-03T06:59:15;100480.88;;;4.25;100.00
44934;BME280;30667;43.614;1.442;2023-03-03T07:01:42;100473.88;;;4.24;100.00
44934;BME280;30667;43.614;1.442;2023-03-03T07:04:31;100484.81;;;4.23;100.00
44934;BME280;30667;43.614;1.442;2023-03-03T07:06:59;100486.03;;;4.27;100.00
44934;BME280;30667;43.614;1.442;2023-03-03T07:09:30;100488.91;;;4.25;100.00
44934;BME280;30667;43.614;1.442;2023-03-03T07:12:17;100493.25;;;4.26;100.00
44934;BME280;30667;43.614;1.442;2023-03-03T07:14:45;100490.13;;;4.29;100.00
44934;BME280;30667;43.614;1.442;2023-03-03T07:17:17;100489.50;;;4.27;100.00
44934;BME280;30667;43.614;1.442;2023-03-03T07:19:44;100492.19;;;4.27;100.00
44934;BME280;30667;43.614;1.442;2023-03-03T07:24:39;100499.34;;;4.33;100.00
44934;BME280;30667;43.614;1.442;2023-03-03T07:29:32;100499.69;;;4.37;100.00
44934;BME280;30667;43.614;1.442;2023-03-03T07:32:00;100503.34;;;4.43;100.00
44934;BME280;30667;43.614;1.442;2023-03-03T07:34:39;100505.34;;;4.47;100.00
44934;BME280;30667;43.614;1.442;2023-03-03T07:37:16;100512.59;;;4.47;100.00
44934;BME280;30667;43.614;1.442;2023-03-03T07:39:44;100512.38;;;4.48;100.00
44934;BME280;30667;43.614;1.442;2023-03-03T07:44:50;100519.41;;;4.61;100.00
44934;BME280;30667;43.614;1.442;2023-03-03T07:47:35;100514.50;;;4.58;100.00
44934;BME280;30667;43.614;1.442;2023-03-03T07:50:13;100521.03;;;4.62;100.00
44934;BME280;30667;43.614;1.442;2023-03-03T07:52:42;100521.47;;;4.59;100.00
44934;BME280;30667;43.614;1.442;2023-03-03T07:57:53;100519.63;;;4.60;100.00
44934;BME280;30667;43.614;1.442;2023-03-03T08:03:03;100509.06;;;4.65;100.00
44934;BME280;30667;43.614;1.442;2023-03-03T08:05:36;100515.22;;;4.65;100.00
44934;BME280;30667;43.614;1.442;2023-03-03T08:10:53;100514.91;;;4.73;100.00
44934;BME280;30667;43.614;1.442;2023-03-03T08:13:21;100516.91;;;4.78;100.00
44934;BME280;30667;43.614;1.442;2023-03-03T08:18:37;100510.28;;;4.81;100.00
44934;BME280;30667;43.614;1.442;2023-03-03T08:23:32;100518.91;;;4.83;100.00
44934;BME280;30667;43.614;1.442;2023-03-03T08:25:57;100518.47;;;4.86;100.00
44934;BME280;30667;43.614;1.442;2023-03-03T08:28:23;100520.00;;;4.94;100.00
44934;BME280;30667;43.614;1.442;2023-03-03T08:30:48;100520.81;;;4.94;100.00
44934;BME280;30667;43.614;1.442;2023-03-03T08:33:15;100527.81;;;4.95;100.00
44934;BME280;30667;43.614;1.442;2023-03-03T08:35:41;100526.59;;;5.09;100.00
44934;BME280;30667;43.614;1.442;2023-03-03T08:38:07;100539.69;;;5.18;100.00
44934;BME280;30667;43.614;1.442;2023-03-03T08:40:33;100544.22;;;5.17;100.00
44934;BME280;30667;43.614;1.442;2023-03-03T08:42:58;100535.97;;;5.19;100.00
44934;BME280;30667;43.614;1.442;2023-03-03T08:45:25;100537.13;;;5.23;100.00
44934;BME280;30667;43.614;1.442;2023-03-03T08:47:50;100538.31;;;5.27;100.00
44934;BME280;30667;43.614;1.442;2023-03-03T08:50:16;100542.53;;;5.35;100.00
44934;BME280;30667;43.614;1.442;2023-03-03T08:52:42;100545.22;;;5.46;100.00
44934;BME280;30667;43.614;1.442;2023-03-03T08:55:07;100545.56;;;5.50;100.00
44934;BME280;30667;43.614;1.442;2023-03-03T08:57:33;100548.63;;;5.54;100.00
44934;BME280;30667;43.614;1.442;2023-03-03T08:59:58;100542.69;;;5.63;100.00
44934;BME280;30667;43.614;1.442;2023-03-03T09:02:24;100543.63;;;5.69;100.00
44934;BME280;30667;43.614;1.442;2023-03-03T09:04:49;100541.78;;;5.81;100.00
44934;BME280;30667;43.614;1.442;2023-03-03T09:07:15;100544.78;;;5.85;100.00
44934;BME280;30667;43.614;1.442;2023-03-03T09:09:40;100549.69;;;5.88;100.00
44934;BME280;30667;43.614;1.442;2023-03-03T09:12:17;100557.06;;;5.93;100.00
44934;BME280;30667;43.614;1.442;2023-03-03T09:14:43;100541.81;;;6.05;100.00
44934;BME280;30667;43.614;1.442;2023-03-03T09:19:52;100545.63;;;6.09;100.00
44934;BME280;30667;43.614;1.442;2023-03-03T09:22:27;100550.53;;;6.12;100.00
44934;BME280;30667;43.614;1.442;2023-03-03T09:24:56;100550.06;;;6.15;100.00
44934;BME280;30667;43.614;1.442;2023-03-03T09:29:54;100544.72;;;6.27;100.00
44934;BME280;30667;43.614;1.442;2023-03-03T09:32:33;100548.19;;;6.28;100.00
44934;BME280;30667;43.614;1.442;2023-03-03T09:35:36;100547.59;;;6.38;100.00
44934;BME280;30667;43.614;1.442;2023-03-03T09:49:02;100547.03;;;6.76;100.00
44934;BME280;30667;43.614;1.442;2023-03-03T09:51:41;100543.63;;;6.81;99.61
44934;BME280;30667;43.614;1.442;2023-03-03T09:57:22;100547.63;;;6.78;97.09
44934;BME280;30667;43.614;1.442;2023-03-03T10:00:03;100542.59;;;6.82;95.28
44934;BME280;30667;43.614;1.442;2023-03-03T10:05:32;100548.00;;;6.99;91.54
44934;BME280;30667;43.614;1.442;2023-03-03T10:08:24;100549.47;;;7.06;91.35
44934;BME280;30667;43.614;1.442;2023-03-03T10:19:39;100549.09;;;7.15;89.69
44934;BME280;30667;43.614;1.442;2023-03-03T10:22:35;100542.91;;;7.14;91.21
44934;BME280;30667;43.614;1.442;2023-03-03T10:30:39;100553.19;;;7.17;85.53
44934;BME280;30667;43.614;1.442;2023-03-03T10:36:15;100560.28;;;7.23;81.05
44934;BME280;30667;43.614;1.442;2023-03-03T10:52:29;100535.69;;;7.49;83.38
44934;BME280;30667;43.614;1.442;2023-03-03T11:00:42;100548.81;;;7.45;77.51
44934;BME280;30667;43.614;1.442;2023-03-03T11:03:45;100539.63;;;7.58;79.38
44934;BME280;30667;43.614;1.442;2023-03-03T11:11:47;100529.66;;;8.14;78.06
44934;BME280;30667;43.614;1.442;2023-03-03T11:17:17;100533.72;;;7.95;77.95
44934;BME280;30667;43.614;1.442;2023-03-03T11:20:00;100531.81;;;7.95;76.89
44934;BME280;30667;43.614;1.442;2023-03-03T11:22:34;100536.59;;;8.10;77.76
44934;BME280;30667;43.614;1.442;2023-03-03T11:36:31;100523.38;;;8.09;68.17
44934;BME280;30667;43.614;1.442;2023-03-03T11:39:10;100522.88;;;8.12;67.08
44934;BME280;30667;43.614;1.442;2023-03-03T11:44:41;100520.94;;;8.07;75.21
44934;BME280;30667;43.614;1.442;2023-03-03T11:52:39;100520.63;;;8.04;75.25
44934;BME280;30667;43.614;1.442;2023-03-03T11:58:10;100515.53;;;7.85;76.78
44934;BME280;30667;43.614;1.442;2023-03-03T12:00:46;100510.19;;;7.90;76.99
44934;BME280;30667;43.614;1.442;2023-03-03T12:03:38;100512.16;;;7.95;69.86
44934;BME280;30667;43.614;1.442;2023-03-03T12:09:12;100495.31;;;8.05;70.77
44934;BME280;30667;43.614;1.442;2023-03-03T12:11:52;100494.38;;;8.16;66.38
44934;BME280;30667;43.614;1.442;2023-03-03T12:17:26;100493.31;;;8.17;69.07
44934;BME280;30667;43.614;1.442;2023-03-03T12:22:33;100491.00;;;8.26;71.19
44934;BME280;30667;43.614;1.442;2023-03-03T12:30:26;100481.34;;;8.52;68.81
44934;BME280;30667;43.614;1.442;2023-03-03T12:33:00;100482.13;;;8.47;68.69
44934;BME280;30667;43.614;1.442;2023-03-03T12:38:32;100475.63;;;8.70;67.77
44934;BME280;30667;43.614;1.442;2023-03-03T12:43:54;100469.81;;;8.57;67.13
44934;BME280;30667;43.614;1.442;2023-03-03T12:49:03;100464.25;;;8.90;65.10
44934;BME280;30667;43.614;1.442;2023-03-03T12:54:44;100454.03;;;8.70;65.07
44934;BME280;30667;43.614;1.442;2023-03-03T12:57:44;100462.91;;;8.93;64.65
44934;BME280;30667;43.614;1.442;2023-03-03T13:02:52;100455.53;;;8.83;65.46
44934;BME280;30667;43.614;1.442;2023-03-03T13:10:50;100445.97;;;8.70;66.62
44934;BME280;30667;43.614;1.442;2023-03-03T13:13:43;100448.78;;;8.81;65.61
44934;BME280;30667;43.614;1.442;2023-03-03T13:16:28;100450.34;;;8.77;66.12
44934;BME280;30667;43.614;1.442;2023-03-03T13:26:42;100443.03;;;8.50;68.33
44934;BME280;30667;43.614;1.442;2023-03-03T13:31:39;100447.69;;;8.54;67.06
44934;BME280;30667;43.614;1.442;2023-03-03T13:34:19;100442.59;;;8.58;66.77
44934;BME280;30667;43.614;1.442;2023-03-03T13:36:57;100444.28;;;8.64;67.35
44934;BME280;30667;43.614;1.442;2023-03-03T13:39:31;100445.81;;;8.82;67.35
44934;BME280;30667;43.614;1.442;2023-03-03T13:42:43;100440.72;;;8.86;66.82
44934;BME280;30667;43.614;1.442;2023-03-03T13:44:45;100443.78;;;9.00;67.18
44934;BME280;30667;43.614;1.442;2023-03-03T14:05:55;100444.00;;;8.93;65.15
44934;BME280;30667;43.614;1.442;2023-03-03T14:19:30;100430.50;;;8.93;64.81
44934;BME280;30667;43.614;1.442;2023-03-03T14:22:38;100424.91;;;9.00;66.36
44934;BME280;30667;43.614;1.442;2023-03-03T14:25:07;100428.47;;;9.05;66.89
44934;BME280;30667;43.614;1.442;2023-03-03T14:27:36;100426.00;;;8.99;66.93
44934;BME280;30667;43.614;1.442;2023-03-03T14:30:30;100427.81;;;8.93;66.98
44934;BME280;30667;43.614;1.442;2023-03-03T14:33:20;100418.09;;;8.92;67.23
44934;BME280;30667;43.614;1.442;2023-03-03T14:38:21;100426.66;;;8.84;67.78
44934;BME280;30667;43.614;1.442;2023-03-03T14:40:48;100421.53;;;8.82;68.10
44934;BME280;30667;43.614;1.442;2023-03-03T14:43:54;100425.81;;;8.78;67.98
44934;BME280;30667;43.614;1.442;2023-03-03T14:46:30;100424.41;;;8.76;67.55
44934;BME280;30667;43.614;1.442;2023-03-03T14:49:04;100419.09;;;8.81;68.29
44934;BME280;30667;43.614;1.442;2023-03-03T14:53:57;100418.50;;;8.79;69.43
44934;BME280;30667;43.614;1.442;2023-03-03T14:56:32;100429.88;;;8.81;68.99
44934;BME280;30667;43.614;1.442;2023-03-03T15:01:38;100423.34;;;8.77;68.56
44934;BME280;30667;43.614;1.442;2023-03-03T15:06:52;100428.31;;;8.90;69.22
44934;BME280;30667;43.614;1.442;2023-03-03T15:09:38;100430.50;;;8.93;68.83
44934;BME280;30667;43.614;1.442;2023-03-03T15:14:52;100424.78;;;8.84;68.41
44934;BME280;30667;43.614;1.442;2023-03-03T15:31:16;100438.06;;;8.91;67.74
44934;BME280;30667;43.614;1.442;2023-03-03T15:39:53;100432.59;;;8.81;66.76
44934;BME280;30667;43.614;1.442;2023-03-03T15:42:32;100425.56;;;8.80;67.00
44934;BME280;30667;43.614;1.442;2023-03-03T15:58:47;100420.41;;;8.78;65.63
44934;BME280;30667;43.614;1.442;2023-03-03T16:01:26;100424.75;;;8.79;65.04
44934;BME280;30667;43.614;1.442;2023-03-03T16:06:48;100433.59;;;8.75;65.28
44934;BME280;30667;43.614;1.442;2023-03-03T16:09:41;100435.22;;;8.76;65.28
44934;BME280;30667;43.614;1.442;2023-03-03T16:23:47;100427.38;;;8.74;65.88
44934;BME280;30667;43.614;1.442;2023-03-03T16:29:20;100420.91;;;8.75;65.93
44934;BME280;30667;43.614;1.442;2023-03-03T16:32:00;100428.00;;;8.81;65.52
44934;BME280;30667;43.614;1.442;2023-03-03T16:34:44;100440.34;;;8.77;65.42
44934;BME280;30667;43.614;1.442;2023-03-03T16:37:17;100440.06;;;8.73;66.05
44934;BME280;30667;43.614;1.442;2023-03-03T16:39:52;100443.16;;;8.60;65.15
44934;BME280;30667;43.614;1.442;2023-03-03T16:42:31;100436.38;;;8.58;66.06
44934;BME280;30667;43.614;1.442;2023-03-03T16:53:36;100443.78;;;8.45;65.62
44934;BME280;30667;43.614;1.442;2023-03-03T16:56:19;100448.38;;;8.45;65.53
44934;BME280;30667;43.614;1.442;2023-03-03T17:01:26;100452.50;;;8.30;64.04
44934;BME280;30667;43.614;1.442;2023-03-03T17:04:53;100450.81;;;8.24;64.08
44934;BME280;30667;43.614;1.442;2023-03-03T17:25:40;100476.03;;;7.96;66.62
44934;BME280;30667;43.614;1.442;2023-03-03T17:31:48;100475.44;;;7.89;67.46
44934;BME280;30667;43.614;1.442;2023-03-03T17:42:38;100495.88;;;7.68;72.23
44934;BME280;30667;43.614;1.442;2023-03-03T17:45:15;100498.47;;;7.62;73.11
44934;BME280;30667;43.614;1.442;2023-03-03T17:56:00;100507.38;;;7.46;76.75
44934;BME280;30667;43.614;1.442;2023-03-03T17:58:49;100518.38;;;7.44;77.08
44934;BME280;30667;43.614;1.442;2023-03-03T18:04:28;100518.31;;;7.39;78.51
44934;BME280;30667;43.614;1.442;2023-03-03T18:09:56;100523.41;;;7.24;81.78
44934;BME280;30667;43.614;1.442;2023-03-03T18:20:17;100538.47;;;7.08;84.30
44934;BME280;30667;43.614;1.442;2023-03-03T18:22:48;100537.34;;;7.04;84.76
44934;BME280;30667;43.614;1.442;2023-03-03T18:25:20;100542.13;;;7.02;85.92
44934;BME280;30667;43.614;1.442;2023-03-03T18:38:58;100550.25;;;6.90;86.63
44934;BME280;30667;43.614;1.442;2023-03-03T18:41:27;100552.72;;;6.91;86.97